MHTG/TGU METAR and TAF weather

Enter ICAO airport designator
Station Type Date Time Source
MHTG METAR 2020/03/27 20:00 UTC NOAA

MHTG 272000Z VRB02KT 9999 NSC 31/11 Q1015 A2997


Station Type Date Time Source
MHTG Decoded METAR 2020/03/27 20:00 UTC NOAA

Tegucigalpa, Honduras (MHTG) 14-03N 087-13W 1007M
Mar 27, 2020 - 04:00 PM EDT / 2020.03.27 2000 UTC
Wind: Variable at 2 MPH (2 KT):0
Visibility: greater than 7 mile(s):0
Temperature: 87 F (31 C)
Dew Point: 51 F (11 C)
Relative Humidity: 29%
Pressure (altimeter): 29.97 in. Hg (1014 hPa)
ob: MHTG 272000Z VRB02KT 9999 NSC 31/11 Q1015 A2997
cycle: 20

Station Type Date Time Source
MHTG TAF 2020/03/28 06:41 UTC NOAA

TAF MHTG 280420Z 2806/2906 00000KT 9999 FEW032 TX32/2820Z TN15/2812Z
BECMG 2816/2818 09008KT
BECMG 2903/2905 00000KT

Example: see airport list